Time;durP1;ratioP1;P1;durP2;ratioP2;P2;SDS_P1;SDS_P2;PMS_P1;PMS_P2;Temp;Humidity;BMP_temperature;BMP_pressure;BME280_temperature;BME280_humidity;BME280_pressure;Samples;Min_cycle;Max_cycle;Signal;HPM_P1;HPM_P2
2022/08/29 00:09:12;;;;;;;4.90;1.90;;;22.40;52.50;;;;;;20499642;29;20038;-76
2022/08/29 00:19:12;;;;;;;3.30;1.90;;;22.40;52.50;;;;;;20499248;29;20102;-75
2022/08/29 00:29:13;;;;;;;4.43;2.35;;;22.30;52.50;;;;;;20481012;28;20482;-75
2022/08/29 00:39:14;;;;;;;5.28;2.10;;;22.30;52.50;;;;;;20512399;29;20046;-75
2022/08/29 00:49:25;;;;;;;5.65;1.98;;;22.30;52.50;;;;;;20503964;28;20043;-76
2022/08/29 00:59:31;;;;;;;4.60;2.08;;;22.30;52.40;;;;;;20479762;29;20031;-78
2022/08/29 01:09:31;;;;;;;5.47;2.13;;;22.30;52.50;;;;;;20464054;29;20474;-75
2022/08/29 01:29:48;;;;;;;4.53;2.05;;;22.20;52.40;;;;;;20934411;23;20447;-78
2022/08/29 01:39:49;;;;;;;5.68;2.28;;;22.20;52.50;;;;;;20717818;28;20123;-77
2022/08/29 01:49:49;;;;;;;5.72;2.13;;;22.20;52.50;;;;;;20732800;28;20044;-75
2022/08/29 01:59:50;;;;;;;5.70;2.22;;;22.20;52.60;;;;;;20717467;28;20049;-75
2022/08/29 02:09:51;;;;;;;5.32;1.73;;;22.10;52.50;;;;;;20731083;28;20038;-75
2022/08/29 02:19:51;;;;;;;3.63;1.80;;;22.10;52.50;;;;;;20715267;28;20058;-75
2022/08/29 02:29:53;;;;;;;5.30;1.88;;;22.10;52.70;;;;;;20714039;28;20083;-76
2022/08/29 02:39:54;;;;;;;4.50;2.10;;;22.10;52.70;;;;;;20729368;28;20034;-78
2022/08/29 02:49:54;;;;;;;5.43;2.22;;;22.10;52.80;;;;;;20728915;28;20116;-77
2022/08/29 02:59:55;;;;;;;3.53;1.70;;;22.10;52.80;;;;;;20715838;28;20045;-76
2022/08/29 03:09:56;;;;;;;6.82;3.00;;;22.10;52.90;;;;;;20647622;28;20038;-76
2022/08/29 03:19:57;;;;;;;5.25;1.92;;;22.10;52.90;;;;;;20648184;28;20138;-76
2022/08/29 03:29:58;;;;;;;3.38;2.22;;;22.10;52.90;;;;;;20679134;28;20401;-77
2022/08/29 03:39:58;;;;;;;5.63;2.00;;;22.00;53.50;;;;;;20629137;28;20038;-76
2022/08/29 03:49:59;;;;;;;4.15;2.25;;;22.00;52.90;;;;;;20644674;28;20038;-76
2022/08/29 04:00:00;;;;;;;3.50;2.10;;;22.00;53.00;;;;;;20644890;28;20065;-75
2022/08/29 04:10:06;;;;;;;3.92;1.83;;;22.00;53.00;;;;;;20656438;28;20042;-75
2022/08/29 04:20:07;;;;;;;3.97;2.03;;;22.00;53.10;;;;;;20704426;28;20052;-78
2022/08/29 04:30:13;;;;;;;3.15;1.65;;;22.00;53.10;;;;;;20657562;28;20116;-71
2022/08/29 04:40:15;;;;;;;3.63;1.80;;;21.90;53.00;;;;;;20651596;28;20045;-78
2022/08/29 04:50:17;;;;;;;3.03;1.60;;;21.90;53.00;;;;;;20618123;28;20042;-76
2022/08/29 05:00:20;;;;;;;3.38;1.50;;;21.90;53.10;;;;;;20672517;28;20049;-74
2022/08/29 05:10:21;;;;;;;5.03;2.50;;;21.90;53.20;;;;;;20756205;28;20134;-72
2022/08/29 05:20:21;;;;;;;6.15;2.38;;;21.90;53.30;;;;;;20708783;28;20061;-72
2022/08/29 05:30:22;;;;;;;4.15;2.08;;;21.90;53.40;;;;;;20709967;28;20591;-74
2022/08/29 05:40:22;;;;;;;4.32;2.17;;;21.90;53.50;;;;;;20732449;28;20741;-80
2022/08/29 05:50:23;;;;;;;3.90;1.60;;;21.90;53.50;;;;;;20696262;28;20431;-78
2022/08/29 06:00:24;;;;;;;6.63;1.70;;;21.90;53.60;;;;;;20689568;28;20392;-80
2022/08/29 06:10:24;;;;;;;4.53;1.90;;;21.80;54.40;;;;;;20742470;28;20034;-80
2022/08/29 06:20:25;;;;;;;5.72;2.20;;;21.80;53.80;;;;;;20767551;28;20296;-80
2022/08/29 06:30:25;;;;;;;4.50;2.15;;;21.80;53.90;;;;;;20644959;28;20168;-80
2022/08/29 06:40:26;;;;;;;6.47;2.00;;;21.80;54.00;;;;;;20647929;28;20041;-81
2022/08/29 06:50:27;;;;;;;5.05;2.35;;;21.80;54.10;;;;;;20628446;28;20046;-80
2022/08/29 07:00:27;;;;;;;6.45;2.42;;;21.80;54.20;;;;;;20628635;28;20709;-81
2022/08/29 07:10:28;;;;;;;6.43;2.30;;;21.70;54.30;;;;;;20612679;28;20440;-79
2022/08/29 07:20:29;;;;;;;8.60;2.45;;;21.70;54.50;;;;;;20609728;28;20134;-75
2022/08/29 07:30:29;;;;;;;9.43;2.95;;;21.80;54.70;;;;;;20657471;28;20030;-73
2022/08/29 07:40:30;;;;;;;5.65;3.42;;;21.80;54.90;;;;;;20613813;28;20456;-75
2022/08/29 07:50:30;;;;;;;5.78;2.65;;;21.80;55.20;;;;;;20636778;28;20617;-74
2022/08/29 08:00:32;;;;;;;5.80;3.00;;;21.80;55.40;;;;;;20637097;28;20436;-74
2022/08/29 08:10:33;;;;;;;10.27;2.83;;;21.80;55.50;;;;;;20671200;28;20447;-73
2022/08/29 08:20:33;;;;;;;8.07;3.17;;;21.80;55.60;;;;;;20725284;28;20030;-74
2022/08/29 08:30:34;;;;;;;6.53;2.60;;;21.90;55.80;;;;;;20730015;28;20046;-75
2022/08/29 08:40:44;;;;;;;7.40;3.00;;;21.80;55.90;;;;;;20730617;28;20034;-74
2022/08/29 08:51:00;;;;;;;5.35;2.70;;;21.80;55.90;;;;;;20713725;28;20096;-74
2022/08/29 09:01:03;;;;;;;;;;;21.80;56.00;;;;;;20698211;28;20121;-75
2022/08/29 09:11:15;;;;;;;6.97;2.72;;;21.90;56.20;;;;;;20660625;28;20375;-72
2022/08/29 09:21:18;;;;;;;6.68;2.70;;;21.90;56.30;;;;;;20712313;28;20388;-72
2022/08/29 09:31:23;;;;;;;7.78;3.00;;;21.90;56.50;;;;;;20712218;28;20038;-71
2022/08/29 09:41:27;;;;;;;5.32;2.67;;;21.90;56.70;;;;;;20711598;28;20034;-73
2022/08/29 09:51:30;;;;;;;5.32;2.67;;;21.90;56.80;;;;;;20697314;28;20568;-75
2022/08/29 10:01:31;;;;;;;7.32;2.95;;;21.90;56.90;;;;;;20722923;28;20092;-81
2022/08/29 10:11:46;;;;;;;4.38;2.58;;;21.90;57.10;;;;;;20722214;28;20033;-81
2022/08/29 10:22:07;;;;;;;6.43;2.73;;;21.90;57.20;;;;;;20746387;28;20042;-81
2022/08/29 10:32:32;;;;;;;5.25;2.30;;;21.90;57.40;;;;;;20629829;28;20344;-80
2022/08/29 10:42:35;;;;;;;5.13;2.80;;;21.90;57.50;;;;;;20662509;28;20146;-76
2022/08/29 10:52:57;;;;;;;5.40;2.85;;;22.00;57.60;;;;;;20645139;28;20476;-77
2022/08/29 11:03:06;;;;;;;5.05;2.22;;;21.90;57.90;;;;;;20644483;28;20069;-75
2022/08/29 11:13:34;;;;;;;3.92;2.60;;;21.90;58.00;;;;;;20626727;28;20042;-74
2022/08/29 11:23:40;;;;;;;6.60;3.40;;;22.00;58.20;;;;;;20657701;28;20043;-73
2022/08/29 11:33:50;;;;;;;8.85;2.85;;;21.90;58.30;;;;;;20640656;28;20057;-75
2022/08/29 11:43:54;;;;;;;4.70;2.65;;;22.00;58.30;;;;;;20648623;28;20034;-72
2022/08/29 11:53:55;;;;;;;4.38;2.50;;;22.00;58.40;;;;;;20638596;28;20041;-73
2022/08/29 12:03:56;;;;;;;5.75;3.17;;;22.00;58.50;;;;;;20687705;28;20140;-74
2022/08/29 12:13:58;;;;;;;3.65;2.15;;;22.00;58.60;;;;;;20799518;28;20033;-73
2022/08/29 12:23:58;;;;;;;5.60;2.30;;;22.00;58.50;;;;;;20728800;28;20049;-72
2022/08/29 12:34:37;;;;;;;2.97;1.80;;;22.00;58.50;;;;;;20700633;28;20109;-69
2022/08/29 12:44:40;;;;;;;3.15;1.75;;;22.00;58.50;;;;;;20701351;28;20091;-71
2022/08/29 12:54:41;;;;;;;3.38;1.88;;;22.00;58.30;;;;;;20714055;28;20038;-72
2022/08/29 13:04:42;;;;;;;5.28;1.95;;;22.10;58.30;;;;;;20698118;28;20048;-75
2022/08/29 13:15:03;;;;;;;4.55;1.77;;;22.10;58.30;;;;;;20713126;28;20408;-76
2022/08/29 13:25:04;;;;;;;3.10;1.80;;;22.10;58.20;;;;;;20676867;28;20043;-75
2022/08/29 13:35:12;;;;;;;3.58;1.98;;;22.10;58.10;;;;;;20616059;28;20503;-75
2022/08/29 13:45:17;;;;;;;3.13;1.60;;;22.10;58.00;;;;;;20644918;28;20045;-75
2022/08/29 13:55:17;;;;;;;2.05;1.50;;;22.20;57.90;;;;;;20653006;28;20612;-75
2022/08/29 14:05:18;;;;;;;4.85;1.95;;;22.20;57.80;;;;;;20628865;28;20054;-78
2022/08/29 14:15:19;;;;;;;2.75;1.50;;;22.30;57.90;;;;;;20726728;28;20025;-77
2022/08/29 14:25:20;;;;;;;3.03;1.40;;;22.20;57.70;;;;;;20722210;28;20050;-75
2022/08/29 14:35:21;;;;;;;2.60;1.60;;;22.20;57.70;;;;;;20707776;28;20487;-74
2022/08/29 14:45:21;;;;;;;1.83;1.15;;;22.30;57.70;;;;;;20724990;28;20081;-73
2022/08/29 14:55:22;;;;;;;3.20;1.42;;;22.30;57.60;;;;;;20706761;28;20484;-75
2022/08/29 15:05:22;;;;;;;3.70;1.42;;;22.40;57.60;;;;;;20691126;28;20041;-75
2022/08/29 15:15:27;;;;;;;3.22;1.98;;;22.40;57.50;;;;;;20714418;28;20527;-79
2022/08/29 15:25:28;;;;;;;4.55;1.38;;;22.40;57.40;;;;;;20727888;28;20049;-74
2022/08/29 15:35:29;;;;;;;1.20;1.10;;;22.40;57.40;;;;;;20685857;28;20034;-74
2022/08/29 15:45:29;;;;;;;2.22;1.20;;;22.40;57.50;;;;;;20702464;28;20328;-74
2022/08/29 15:55:30;;;;;;;2.00;1.20;;;22.40;57.50;;;;;;20672528;28;20034;-74
2022/08/29 16:05:31;;;;;;;2.67;1.00;;;22.40;57.40;;;;;;20633496;28;20294;-73
2022/08/29 16:15:32;;;;;;;3.43;1.30;;;22.40;57.40;;;;;;20753581;28;20095;-73
2022/08/29 16:25:33;;;;;;;1.27;0.90;;;22.40;57.40;;;;;;20640671;28;20142;-74
2022/08/29 16:35:33;;;;;;;1.50;1.10;;;22.50;57.40;;;;;;20638194;28;20065;-73
2022/08/29 16:45:35;;;;;;;1.75;1.20;;;22.50;57.20;;;;;;20635313;28;20067;-71
2022/08/29 16:55:36;;;;;;;2.08;1.20;;;22.50;57.20;;;;;;20632512;28;20386;-72
2022/08/29 17:05:36;;;;;;;0.85;0.85;;;22.60;57.30;;;;;;20633644;28;20038;-71
2022/08/29 17:25:38;;;;;;;2.38;1.40;;;22.50;57.40;;;;;;20630669;28;20612;-74
2022/08/29 17:35:39;;;;;;;1.27;0.85;;;22.50;57.40;;;;;;20614696;28;20181;-76
2022/08/29 17:45:39;;;;;;;1.02;0.82;;;22.40;57.50;;;;;;20649198;28;20063;-76
2022/08/29 17:55:40;;;;;;;1.25;0.90;;;22.40;57.50;;;;;;20647240;28;20489;-76
2022/08/29 18:05:41;;;;;;;2.20;0.80;;;22.40;57.60;;;;;;20647056;28;20137;-83
2022/08/29 18:15:42;;;;;;;1.50;0.85;;;22.40;57.60;;;;;;20634484;28;20037;-87
2022/08/29 18:25:43;;;;;;;0.70;0.70;;;22.40;57.70;;;;;;20632915;28;20077;-85
2022/08/29 18:35:44;;;;;;;1.63;0.85;;;22.30;57.70;;;;;;20685959;28;20168;-85
2022/08/29 18:45:45;;;;;;;2.47;0.85;;;22.30;57.70;;;;;;20710110;28;20464;-85
2022/08/29 18:55:46;;;;;;;0.75;0.65;;;22.30;57.80;;;;;;20712102;28;20034;-84
2022/08/29 19:05:48;;;;;;;1.00;0.70;;;22.30;57.80;;;;;;20677074;28;20042;-83
2022/08/29 19:15:49;;;;;;;1.35;0.70;;;22.30;57.80;;;;;;20659410;28;20060;-81
2022/08/29 19:25:50;;;;;;;0.63;0.60;;;22.20;57.80;;;;;;20713455;28;20045;-83
2022/08/29 19:35:52;;;;;;;2.23;0.97;;;22.20;57.90;;;;;;20623215;28;20117;-82
2022/08/29 19:45:53;;;;;;;0.40;0.40;;;22.20;58.00;;;;;;20688001;28;20298;-82
2022/08/29 19:55:54;;;;;;;0.55;0.55;;;22.20;58.00;;;;;;20682369;28;20027;-83
2022/08/29 20:05:55;;;;;;;0.65;0.63;;;22.20;58.10;;;;;;20722423;28;20052;-82
2022/08/29 20:15:55;;;;;;;0.50;0.50;;;22.20;58.10;;;;;;20734200;28;20502;-82
2022/08/29 20:25:58;;;;;;;0.88;0.60;;;22.20;58.10;;;;;;20711081;28;20309;-82
2022/08/29 20:46:18;;;;;;;0.80;0.60;;;22.10;58.20;;;;;;20746869;28;20465;-82
2022/08/29 20:56:18;;;;;;;1.40;0.50;;;22.10;58.30;;;;;;20723574;28;20065;-81
2022/08/29 21:06:20;;;;;;;0.63;0.40;;;22.10;58.30;;;;;;20744291;28;20049;-82
2022/08/29 21:16:21;;;;;;;0.70;0.40;;;22.10;58.40;;;;;;20722311;28;20026;-82
2022/08/29 21:26:21;;;;;;;0.73;0.50;;;22.10;58.50;;;;;;20737768;28;20654;-82
2022/08/29 21:36:28;;;;;;;0.60;0.50;;;22.10;58.50;;;;;;20706070;28;20025;-81
2022/08/29 21:46:32;;;;;;;0.73;0.57;;;22.10;58.60;;;;;;20727215;28;20139;-82
2022/08/29 21:56:33;;;;;;;1.25;0.38;;;22.10;58.60;;;;;;20707428;28;20033;-82
2022/08/29 22:06:36;;;;;;;0.68;0.43;;;22.10;58.60;;;;;;20739228;28;20108;-81
2022/08/29 22:16:37;;;;;;;0.30;0.30;;;22.00;58.60;;;;;;20721558;28;20068;-82
2022/08/29 22:26:40;;;;;;;0.70;0.38;;;22.00;58.50;;;;;;20721103;28;20057;-83
2022/08/29 22:36:40;;;;;;;0.25;0.20;;;22.00;58.50;;;;;;20648795;28;20030;-83
2022/08/29 22:46:42;;;;;;;0.60;0.32;;;22.00;59.10;;;;;;20618243;28;20042;-83
2022/08/29 22:56:43;;;;;;;0.52;0.30;;;22.00;58.40;;;;;;20618465;28;20035;-83
2022/08/29 23:06:44;;;;;;;0.30;0.30;;;22.00;58.30;;;;;;20617854;28;20046;-82
2022/08/29 23:16:45;;;;;;;0.28;0.28;;;22.00;58.30;;;;;;20647575;28;20499;-83
2022/08/29 23:26:46;;;;;;;0.20;0.20;;;22.00;58.30;;;;;;20682773;28;20049;-83
2022/08/29 23:36:46;;;;;;;0.40;0.30;;;22.00;58.20;;;;;;20668207;28;20038;-84
2022/08/29 23:46:47;;;;;;;0.25;0.22;;;21.90;58.10;;;;;;20648879;28;20392;-82
2022/08/29 23:56:48;;;;;;;0.28;0.22;;;22.00;58.20;;;;;;20663470;28;20496;-83
